Time;durP1;ratioP1;P1;durP2;ratioP2;P2;SDS_P1;SDS_P2;PMS_P1;PMS_P2;Temp;Humidity;BMP_temperature;BMP_pressure;BME280_temperature;BME280_humidity;BME280_pressure;Samples;Min_cycle;Max_cycle;Signal;HPM_P1;HPM_P2
2022/12/09 00:07:23;;;;;;;0.20;0.10;;;13.60;99.90;;;;;;20946818;28;20425;-74
2022/12/09 00:17:29;;;;;;;0.20;0.10;;;13.60;99.90;;;;;;20961145;28;20414;-73
2022/12/09 00:27:33;;;;;;;0.20;0.00;;;13.60;99.90;;;;;;20926914;28;20444;-73
2022/12/09 00:37:39;;;;;;;0.20;0.10;;;13.10;99.90;;;;;;20895827;28;20396;-73
2022/12/09 00:47:42;;;;;;;0.20;0.00;;;13.00;99.90;;;;;;20858869;28;20434;-73
2022/12/09 00:57:48;;;;;;;0.20;0.10;;;13.20;99.90;;;;;;20860711;28;20747;-73
2022/12/09 01:07:52;;;;;;;0.20;0.03;;;13.10;99.90;;;;;;20957446;28;20421;-74
2022/12/09 01:17:57;;;;;;;0.20;0.10;;;12.90;99.90;;;;;;20939967;28;20405;-74
2022/12/09 01:28:01;;;;;;;0.20;0.00;;;13.10;99.90;;;;;;20943579;28;20413;-73
2022/12/09 01:38:07;;;;;;;0.20;0.10;;;13.10;99.90;;;;;;20906317;28;20519;-73
2022/12/09 01:48:12;;;;;;;0.20;0.10;;;13.20;99.90;;;;;;20890431;28;20423;-73
2022/12/09 01:58:19;;;;;;;0.20;0.07;;;13.40;99.90;;;;;;20889712;28;20552;-75
2022/12/09 02:08:24;;;;;;;0.20;0.10;;;13.60;99.90;;;;;;20854319;28;20469;-75
2022/12/09 02:18:37;;;;;;;0.20;0.10;;;13.70;99.90;;;;;;20870993;28;20759;-75
2022/12/09 02:29:14;;;;;;;0.20;0.10;;;13.80;99.90;;;;;;20882062;28;20424;-73
2022/12/09 02:39:24;;;;;;;0.20;0.10;;;13.90;99.90;;;;;;20887191;28;20929;-73
2022/12/09 02:49:30;;;;;;;0.20;0.10;;;14.00;99.90;;;;;;20883859;28;20407;-74
2022/12/09 02:59:35;;;;;;;0.20;0.03;;;14.10;99.90;;;;;;20897022;28;20478;-76
2022/12/09 03:09:46;;;;;;;0.20;0.10;;;13.80;99.90;;;;;;20950432;28;20421;-76
2022/12/09 03:19:55;;;;;;;0.20;0.10;;;13.70;99.90;;;;;;20949671;28;20495;-74
2022/12/09 03:30:02;;;;;;;0.20;0.10;;;13.90;99.90;;;;;;20950454;28;20422;-75
2022/12/09 03:40:12;;;;;;;0.20;0.10;;;13.70;99.90;;;;;;20947266;28;20405;-76
2022/12/09 03:50:17;;;;;;;0.20;0.10;;;13.40;99.90;;;;;;20947130;28;20418;-75
2022/12/09 04:00:22;;;;;;;0.20;0.10;;;13.70;99.90;;;;;;20947283;28;20733;-75
2022/12/09 04:10:26;;;;;;;0.20;0.10;;;13.70;99.90;;;;;;20945428;28;20425;-75
2022/12/09 04:20:32;;;;;;;0.20;0.10;;;13.60;99.90;;;;;;20945607;28;20409;-75
2022/12/09 04:30:36;;;;;;;0.20;0.10;;;13.70;99.90;;;;;;20942945;28;20428;-73
2022/12/09 04:40:41;;;;;;;0.20;0.07;;;13.70;99.90;;;;;;20943757;28;20406;-74
2022/12/09 04:50:45;;;;;;;0.20;0.10;;;13.60;99.90;;;;;;20956896;28;20907;-75
2022/12/09 05:00:51;;;;;;;0.20;0.10;;;13.70;99.90;;;;;;20939516;28;20402;-75
2022/12/09 05:10:55;;;;;;;0.20;0.00;;;13.40;99.90;;;;;;20934164;28;20398;-75
2022/12/09 05:21:04;;;;;;;0.20;0.00;;;13.40;99.90;;;;;;20936464;28;20420;-74
2022/12/09 05:31:13;;;;;;;0.20;0.10;;;13.30;99.90;;;;;;20940761;28;20502;-74
2022/12/09 05:41:19;;;;;;;0.20;0.00;;;13.30;99.90;;;;;;20922200;28;20425;-73
2022/12/09 05:51:26;;;;;;;0.20;0.10;;;13.10;99.90;;;;;;20940249;28;20973;-74
2022/12/09 06:01:32;;;;;;;0.20;0.10;;;12.90;99.90;;;;;;20939660;28;20405;-75
2022/12/09 06:11:36;;;;;;;0.20;0.00;;;12.80;99.90;;;;;;20937364;28;20410;-73
2022/12/09 06:21:42;;;;;;;0.20;0.10;;;13.00;99.90;;;;;;20966497;28;20475;-74
2022/12/09 06:31:46;;;;;;;0.20;0.10;;;12.90;99.90;;;;;;20950472;28;20979;-76
2022/12/09 06:41:52;;;;;;;0.20;0.10;;;13.40;99.90;;;;;;20969199;28;20409;-76
2022/12/09 06:51:56;;;;;;;0.20;0.10;;;13.80;99.90;;;;;;20949123;28;20414;-75
2022/12/09 07:02:02;;;;;;;0.20;0.10;;;13.70;99.90;;;;;;20948831;28;21000;-75
2022/12/09 07:12:07;;;;;;;0.20;0.10;;;13.50;99.90;;;;;;20948690;28;20503;-74
2022/12/09 07:22:13;;;;;;;0.20;0.10;;;13.50;99.90;;;;;;20951255;28;20406;-74
2022/12/09 07:32:17;;;;;;;0.20;0.10;;;13.50;99.90;;;;;;20945486;28;20410;-70
2022/12/09 07:42:23;;;;;;;0.20;0.10;;;14.00;99.90;;;;;;20947765;28;20421;-74
2022/12/09 07:52:28;;;;;;;0.20;0.00;;;14.10;99.90;;;;;;20945324;28;20526;-71
2022/12/09 08:02:33;;;;;;;0.20;0.10;;;14.40;99.90;;;;;;20945739;28;20536;-76
2022/12/09 08:12:37;;;;;;;0.20;0.10;;;14.80;99.90;;;;;;20945337;28;20449;-77
2022/12/09 08:22:42;;;;;;;0.20;0.10;;;14.70;99.90;;;;;;20943805;28;20398;-77
2022/12/09 08:32:47;;;;;;;0.20;0.03;;;14.80;99.90;;;;;;20945496;28;21315;-75
2022/12/09 08:42:55;;;;;;;0.20;0.10;;;14.90;99.90;;;;;;20853967;28;22159;-74
2022/12/09 08:53:00;;;;;;;0.20;0.10;;;15.00;99.90;;;;;;20860977;28;20910;-73
2022/12/09 09:03:05;;;;;;;0.20;0.00;;;15.20;99.90;;;;;;20872051;28;20396;-74
2022/12/09 09:13:10;;;;;;;0.20;0.00;;;15.50;99.90;;;;;;20876106;28;20417;-74
2022/12/09 09:23:15;;;;;;;0.20;0.10;;;15.60;99.90;;;;;;20939064;28;20402;-73
2022/12/09 09:33:20;;;;;;;0.20;0.10;;;15.80;99.90;;;;;;20939466;28;20863;-74
2022/12/09 09:43:28;;;;;;;0.20;0.10;;;16.20;99.90;;;;;;20937895;28;20409;-73
2022/12/09 09:53:35;;;;;;;0.20;0.10;;;16.40;99.90;;;;;;20944958;28;20418;-73
2022/12/09 10:03:49;;;;;;;0.20;0.00;;;16.40;99.90;;;;;;20937595;28;20405;-73
2022/12/09 10:13:58;;;;;;;0.20;0.10;;;16.70;99.90;;;;;;20953551;28;20413;-76
2022/12/09 10:24:17;;;;;;;0.20;0.00;;;17.10;99.90;;;;;;20953111;28;20445;-77
2022/12/09 10:34:21;;;;;;;0.20;0.03;;;17.30;99.90;;;;;;20948838;28;20511;-75
2022/12/09 10:44:28;;;;;;;0.20;0.00;;;17.80;99.90;;;;;;20950384;28;20486;-72
2022/12/09 10:54:38;;;;;;;0.20;0.00;;;17.80;99.90;;;;;;20950305;28;20932;-75
2022/12/09 11:04:45;;;;;;;0.20;0.00;;;18.40;99.90;;;;;;20947468;28;20406;-75
2022/12/09 11:14:52;;;;;;;0.20;0.03;;;18.50;99.90;;;;;;20947220;28;20529;-74
2022/12/09 11:25:17;;;;;;;0.20;0.00;;;19.30;99.90;;;;;;20948762;28;20500;-74
2022/12/09 11:35:31;;;;;;;0.20;0.00;;;19.20;99.90;;;;;;20947624;28;20410;-75
2022/12/09 11:45:40;;;;;;;0.20;0.00;;;19.60;99.90;;;;;;20943930;28;20504;-73
2022/12/09 11:55:46;;;;;;;0.20;0.00;;;19.70;99.90;;;;;;20962415;28;20406;-76
2022/12/09 12:05:54;;;;;;;0.20;0.00;;;19.80;99.90;;;;;;20926316;28;21343;-76
2022/12/09 12:16:07;;;;;;;0.20;0.00;;;20.50;99.90;;;;;;20943316;28;20499;-74
2022/12/09 12:26:18;;;;;;;0.20;0.00;;;20.50;99.90;;;;;;20943333;28;20965;-74
2022/12/09 12:36:31;;;;;;;0.20;0.00;;;20.00;99.90;;;;;;20942391;28;20425;-77
2022/12/09 12:46:50;;;;;;;0.20;0.08;;;20.40;99.90;;;;;;20942602;28;20444;-74
2022/12/09 12:57:11;;;;;;;0.20;0.00;;;20.50;99.90;;;;;;20940104;28;20553;-75
2022/12/09 13:07:24;;;;;;;0.20;0.00;;;19.90;99.90;;;;;;20941110;28;20584;-78
2022/12/09 13:17:29;;;;;;;0.20;0.00;;;20.60;99.90;;;;;;20937357;28;20398;-76
2022/12/09 13:27:44;;;;;;;0.20;0.00;;;20.40;99.90;;;;;;20939698;28;20406;-76
2022/12/09 13:37:59;;;;;;;0.20;0.00;;;20.80;99.90;;;;;;20936642;28;20410;-76
2022/12/09 13:48:25;;;;;;;0.20;0.10;;;20.80;99.90;;;;;;20935645;28;20627;-73
2022/12/09 13:59:26;;;;;;;0.20;0.00;;;20.60;99.90;;;;;;20934068;28;20730;-73
2022/12/09 14:09:41;;;;;;;0.20;0.00;;;21.00;99.90;;;;;;20844402;28;20402;-73
2022/12/09 14:19:54;;;;;;;0.20;0.00;;;22.50;99.90;;;;;;20933227;28;20414;-74
2022/12/09 14:30:01;;;;;;;0.20;0.00;;;23.30;99.90;;;;;;20932543;28;20406;-73
2022/12/09 14:40:25;;;;;;;0.20;0.00;;;22.40;99.90;;;;;;20943082;28;20734;-73
2022/12/09 14:50:30;;;;;;;0.20;0.07;;;20.40;99.90;;;;;;20946130;28;20437;-75
2022/12/09 15:00:37;;;;;;;0.20;0.00;;;19.80;99.90;;;;;;20944789;28;20462;-71
2022/12/09 15:10:42;;;;;;;0.20;0.00;;;20.60;99.90;;;;;;20932772;28;20776;-74
2022/12/09 15:20:50;;;;;;;0.20;0.00;;;20.50;99.90;;;;;;20939657;28;20899;-72
2022/12/09 15:30:57;;;;;;;0.20;0.00;;;21.20;99.90;;;;;;20939844;28;20433;-74
2022/12/09 15:51:31;;;;;;;0.20;0.10;;;18.70;99.90;;;;;;20935603;28;20418;-75
2022/12/09 16:01:35;;;;;;;0.20;0.10;;;18.10;99.90;;;;;;20937154;28;20394;-75
2022/12/09 16:11:42;;;;;;;0.20;0.10;;;17.40;99.90;;;;;;20930905;28;20445;-75
2022/12/09 16:21:46;;;;;;;0.20;0.10;;;17.00;99.90;;;;;;20937814;28;20413;-75
2022/12/09 16:32:19;;;;;;;0.20;0.03;;;16.80;99.90;;;;;;20934036;28;20600;-75
2022/12/09 16:42:28;;;;;;;0.20;0.00;;;16.60;99.90;;;;;;20937590;28;20421;-74
2022/12/09 16:52:33;;;;;;;0.20;0.03;;;16.40;99.90;;;;;;20931694;28;20425;-74
2022/12/09 17:02:41;;;;;;;0.20;0.10;;;16.40;99.90;;;;;;20931712;28;20406;-73
2022/12/09 17:12:46;;;;;;;0.20;0.10;;;16.10;99.90;;;;;;20933426;28;20414;-76
2022/12/09 17:22:50;;;;;;;0.20;0.10;;;15.90;99.90;;;;;;20914943;28;20992;-77
2022/12/09 17:32:56;;;;;;;0.20;0.10;;;15.50;99.90;;;;;;20922383;28;20426;-75
2022/12/09 17:43:00;;;;;;;0.20;0.10;;;15.20;99.90;;;;;;20850188;28;20400;-73
2022/12/09 17:53:05;;;;;;;0.20;0.00;;;15.00;99.90;;;;;;20873556;28;20411;-74
2022/12/09 18:03:09;;;;;;;0.20;0.10;;;14.20;99.90;;;;;;20929736;28;20398;-71
2022/12/09 18:13:21;;;;;;;0.20;0.10;;;14.00;99.90;;;;;;20937306;28;20404;-77
2022/12/09 18:23:25;;;;;;;0.20;0.05;;;13.90;99.90;;;;;;20937482;28;21268;-76
2022/12/09 18:33:31;;;;;;;0.20;0.10;;;13.90;99.90;;;;;;20930148;28;20415;-75
2022/12/09 18:43:37;;;;;;;0.20;0.10;;;13.90;99.90;;;;;;20864845;28;20392;-74
2022/12/09 18:53:42;;;;;;;0.20;0.10;;;14.00;99.90;;;;;;20933895;28;20406;-75
2022/12/09 19:03:47;;;;;;;0.20;0.00;;;14.40;99.90;;;;;;20944814;28;20414;-75
2022/12/09 19:13:53;;;;;;;0.20;0.00;;;14.30;99.90;;;;;;20937578;28;20413;-76
2022/12/09 19:23:57;;;;;;;0.20;0.00;;;14.10;99.90;;;;;;20940947;28;20461;-75
2022/12/09 19:34:05;;;;;;;0.20;0.10;;;14.30;99.90;;;;;;20937038;28;20421;-75
2022/12/09 19:44:11;;;;;;;0.20;0.10;;;14.10;99.90;;;;;;20935379;28;20405;-76
2022/12/09 19:54:19;;;;;;;0.20;0.10;;;13.90;99.90;;;;;;20931645;28;21273;-72
2022/12/09 20:04:32;;;;;;;0.20;0.10;;;13.90;99.90;;;;;;20943945;28;20849;-76
2022/12/09 20:14:53;;;;;;;0.20;0.10;;;13.90;99.90;;;;;;20939631;28;20410;-75
2022/12/09 20:24:57;;;;;;;0.20;0.10;;;14.10;99.90;;;;;;20939279;28;21116;-74
2022/12/09 20:35:02;;;;;;;0.20;0.10;;;14.20;99.90;;;;;;20935587;28;20418;-72
2022/12/09 20:45:12;;;;;;;0.20;0.10;;;14.50;99.90;;;;;;20955525;28;20458;-77
2022/12/09 20:55:18;;;;;;;0.20;0.10;;;14.30;99.90;;;;;;20941523;28;20416;-76
2022/12/09 21:05:22;;;;;;;0.20;0.10;;;14.10;99.90;;;;;;20940012;28;20410;-76
2022/12/09 21:15:28;;;;;;;0.20;0.07;;;14.00;99.90;;;;;;20938663;28;20741;-76
2022/12/09 21:25:33;;;;;;;0.20;0.10;;;14.10;99.90;;;;;;20919804;28;20441;-74
2022/12/09 21:35:43;;;;;;;0.20;0.10;;;14.00;99.90;;;;;;20902103;28;20426;-77
2022/12/09 21:45:46;;;;;;;0.20;0.10;;;13.90;99.90;;;;;;20856842;28;20415;-76
2022/12/09 21:55:52;;;;;;;0.20;0.10;;;13.90;99.90;;;;;;20865287;28;21160;-76
2022/12/09 22:05:59;;;;;;;0.20;0.10;;;13.80;99.90;;;;;;20866599;28;20411;-75
2022/12/09 22:16:08;;;;;;;0.20;0.00;;;13.80;99.90;;;;;;20883821;28;20407;-76
2022/12/09 22:26:14;;;;;;;0.20;0.10;;;13.90;99.90;;;;;;20866192;28;20423;-76
2022/12/09 22:36:20;;;;;;;0.20;0.10;;;13.90;99.90;;;;;;20903807;28;20410;-75
2022/12/09 22:46:26;;;;;;;0.20;0.10;;;13.90;99.90;;;;;;20947310;28;20406;-75
2022/12/09 22:56:31;;;;;;;0.20;0.03;;;14.00;99.90;;;;;;20948322;28;20414;-75
2022/12/09 23:06:36;;;;;;;0.20;0.10;;;14.00;99.90;;;;;;20947533;28;20437;-74
2022/12/09 23:16:42;;;;;;;0.20;0.10;;;13.90;99.90;;;;;;20943948;28;20530;-76
2022/12/09 23:26:45;;;;;;;0.20;0.10;;;13.90;99.90;;;;;;20939719;28;20398;-75
2022/12/09 23:36:51;;;;;;;0.20;0.10;;;14.00;99.90;;;;;;20901420;28;20403;-74
2022/12/09 23:46:55;;;;;;;0.20;0.10;;;14.00;99.90;;;;;;20862092;28;20404;-75
2022/12/09 23:57:01;;;;;;;0.20;0.03;;;14.00;99.90;;;;;;20860310;28;20495;-75
